Divinopolis, Brazil
Current Conditions -  °F | °C
As of 7:35 PM on Saturday 20 Dec 2014 (Local Time) from SBPR Reporting Station
Few Clouds Few Clouds  
Wind Chill: 79°   Ceiling: Unl
Heat Index: 81°   Visibility: 6mi
Dew Point: 66°   Wind: 0mph
Humidity: 65%   Direction: NA
Pressure: 29.97"   Gusts: NA
Location:  20.15°S, 44.9°W
Report Text: SBPR 202135Z 00000KT 9999 FEW030 FEW035TCU 26/19 Q1015
Loading
Personal Weather Stations






























Interactive Weather Map New forecast layout! Learn more

10-Day Weather Forecast

Advertisements
Track Severe Weather on mobile